Latest Weather Observations for Moomba Airport

IDS60801

Issued at 2:35 pm CDT Monday 20 October 2014 (issued every 30 minutes, with the page automatically refreshed every 10 minutes)

About weather observations | Map of weather stations | Latest weather observations for SA | Other Formats
Station Details ID: 017123 Name: MOOMBA AIRPORT Lat: -28.10 Lon: 140.20 Height: 37.8 m
Data from the previous 72 hours. | See also: Recent months at Moomba Airport
Date/Time
CDT
Temp
°C
App
Temp
°C
Dew
Point
Rel
Hum
%
Delta-T
°C
Wind Press
QNH
hPa
Press
MSL
hPa
Rain
since 9 am
mm
Dir
 
Spd
km/h
Gust
km/h
Spd
kts
Gust
kts
20/02:30pm 36.6 31.7 -3.0 8 18.8 NE 13 20 7 11 1018.3 1018.2 0.0
20/02:00pm 36.1 32.2 -1.7 9 18.3 SE 9 17 5 9 1018.8 1018.7 0.0
20/01:30pm 37.0 32.0 -1.1 9 18.7 NE 15 28 8 15 1019.3 1019.2 0.0
20/01:00pm 36.0 31.9 -0.4 10 18.0 N 11 20 6 11 1019.8 1019.7 0.0
20/12:30pm 35.5 30.9 -0.8 10 17.7 N 13 24 7 13 1020.3 1020.2 0.0
20/12:00pm 35.5 30.4 0.6 11 17.4 NNW 17 24 9 13 1020.6 1020.5 0.0
20/11:30am 35.0 30.0 1.4 12 16.9 NNW 17 22 9 12 1020.8 1020.7 0.0
20/11:00am 34.5 29.1 1.0 12 16.8 N 19 28 10 15 1021.2 1021.1 0.0
20/10:30am 33.6 28.0 1.4 13 16.1 NNE 20 26 11 14 1021.3 1021.2 0.0
20/10:00am 32.7 26.6 0.7 13 15.8 NNE 22 30 12 16 1021.7 1021.6 0.0
20/09:30am 31.7 26.6 1.0 14 15.1 NNE 17 22 9 12 1021.4 1021.3 0.0
20/09:00am 30.4 25.6 -0.1 14 14.5 NNE 15 20 8 11 1021.1 1021.0 0.0
20/08:30am 28.0 23.0 -1.0 15 13.4 NE 15 19 8 10 1020.8 1020.7 0.0
20/08:00am 22.9 18.5 -6.0 14 11.7 NE 9 11 5 6 1020.5 1020.4 0.0
20/07:30am 20.0 14.7 -7.4 15 10.4 ENE 13 13 7 7 1020.2 1020.1 0.0
20/07:00am 18.1 13.1 -8.1 16 9.6 E 11 13 6 7 1019.9 1019.8 0.0
20/06:30am 17.4 12.0 -7.9 17 9.2 ENE 13 17 7 9 1019.3 1019.2 0.0
20/06:00am 17.9 13.0 -7.5 17 9.4 ENE 11 13 6 7 1019.2 1019.1 0.0
20/05:30am 18.0 12.6 -8.2 16 9.6 ENE 13 15 7 8 1018.8 1018.7 0.0
20/05:00am 18.5 13.1 -8.6 15 9.9 E 13 15 7 8 1018.5 1018.4 0.0
20/04:30am 18.9 13.5 -8.3 15 10.0 E 13 17 7 9 1018.5 1018.4 0.0
20/04:00am 20.0 15.4 -7.4 15 10.4 ENE 9 15 5 8 1018.4 1018.3 0.0
20/03:30am 20.1 15.1 -8.2 14 10.6 ENE 11 13 6 7 1018.0 1017.9 0.0
20/03:00am 21.2 16.6 -8.3 13 11.2 ENE 9 11 5 6 1018.3 1018.2 0.0
20/02:30am 21.2 15.8 -8.3 13 11.2 E 13 13 7 7 1018.3 1018.2 0.0
20/02:00am 21.5 16.5 -8.0 13 11.3 E 11 13 6 7 1018.6 1018.5 0.0
20/01:30am 20.6 15.5 -9.8 12 11.1 E 11 13 6 7 1018.8 1018.7 0.0
20/01:00am 22.4 17.3 -9.5 11 12.0 E 11 19 6 10 1018.9 1018.8 0.0
20/12:30am 23.7 18.3 -8.5 11 12.4 E 13 13 7 7 1019.0 1018.9 0.0
20/12:00am 23.6 18.6 -8.5 11 12.4 E 11 13 6 7 1019.2 1019.1 0.0
 
Date/Time
CDT
Temp
°C
App
Temp
°C
Dew
Point
Rel
Hum
%
Delta-T
°C
Wind Press
QNH
hPa
Press
MSL
hPa
Rain
since 9 am
mm
Dir
 
Spd
km/h
Gust
km/h
Spd
kts
Gust
kts
19/11:30pm 24.2 18.7 -9.3 10 12.8 E 13 15 7 8 1019.2 1019.1 0.0
19/11:00pm 24.2 19.1 -9.3 10 12.9 E 11 13 6 7 1019.2 1019.1 0.0
19/10:30pm 25.4 20.0 -8.4 10 13.3 E 13 13 7 7 1019.1 1019.0 0.0
19/10:00pm 26.6 22.0 -7.5 10 13.9 E 9 11 5 6 1019.2 1019.1 0.0
19/09:30pm 27.3 22.8 -6.9 10 14.1 ENE 9 11 5 6 1018.9 1018.8 0.0
19/09:00pm 27.2 22.9 -8.4 9 14.3 ENE 7 9 4 5 1018.6 1018.5 0.0
19/08:30pm 28.9 24.9 -7.1 9 15.0 ENE 6 7 3 4 1018.4 1018.3 0.0
19/08:00pm 29.3 24.7 -8.3 8 15.5 E 9 11 5 6 1018.2 1018.1 0.0
19/07:30pm 31.4 26.9 -6.8 8 16.4 E 9 13 5 7 1017.8 1017.7 0.0
19/07:00pm 33.2 29.0 -7.2 7 17.5 ENE 7 9 4 5 1017.4 1017.3 0.0
19/06:30pm 34.8 30.4 -6.0 7 18.2 E 9 13 5 7 1017.2 1017.1 0.0
19/06:00pm 35.4 31.0 -5.6 7 18.5 NNE 9 15 5 8 1017.0 1016.9 0.0
19/05:30pm 36.2 33.2 -5.0 7 18.9 SSE 2 9 1 5 1016.9 1016.8 0.0
19/05:00pm 36.0 30.9 -5.2 7 18.9 NE 13 17 7 9 1016.7 1016.6 0.0
19/04:30pm 35.6 30.5 -5.5 7 18.6 ESE 13 19 7 10 1016.6 1016.5 0.0
19/04:00pm 35.9 31.0 -7.2 6 19.1 ENE 11 17 6 9 1016.8 1016.7 0.0
19/03:30pm 36.0 32.0 -5.2 7 18.8 ENE 7 13 4 7 1017.0 1016.9 0.0
19/03:00pm 36.1 31.2 -7.1 6 19.2 NE 11 13 6 7 1017.4 1017.3 0.0
19/02:30pm 35.6 31.2 -5.5 7 18.6 NW 9 20 5 11 1017.8 1017.7 0.0
19/02:00pm 35.2 29.7 -5.7 7 18.5 N 15 24 8 13 1018.2 1018.1 0.0
19/01:30pm 35.2 28.9 -5.7 7 18.4 NNE 19 33 10 18 1018.7 1018.6 0.0
19/01:00pm 34.1 28.5 -6.5 7 17.9 N 15 20 8 11 1019.1 1019.0 0.0
19/12:30pm 34.6 28.6 -6.2 7 18.1 NNE 17 28 9 15 1019.7 1019.6 0.0
19/12:00pm 33.2 26.8 -7.2 7 17.5 N 19 28 10 15 1020.0 1019.9 0.0
19/11:30am 34.1 27.5 -6.5 7 17.9 NE 20 28 11 15 1020.5 1020.4 0.0
19/11:00am 33.1 26.3 -5.5 8 17.2 NNE 22 32 12 17 1021.1 1021.0 0.0
19/10:30am 32.0 24.3 -6.3 8 16.6 NE 26 32 14 17 1021.2 1021.1 0.0
19/10:00am 30.6 22.6 -5.8 9 15.8 NE 28 37 15 20 1021.1 1021.0 0.0
19/09:30am 28.3 21.0 -6.2 10 14.5 ENE 24 30 13 16 1021.2 1021.1 0.0
19/09:00am 26.3 19.3 -7.7 10 13.7 ENE 22 26 12 14 1021.3 1021.2 0.0
19/08:30am 24.0 18.3 -7.1 12 12.4 ENE 15 19 8 10 1021.4 1021.3 0.0
19/08:00am 20.0 14.7 -7.4 15 10.4 E 13 17 7 9 1021.3 1021.2 0.0
19/07:30am 16.6 11.2 -8.5 17 9.0 E 13 15 7 8 1020.9 1020.8 0.0
19/07:00am 14.5 9.4 -8.8 19 8.1 E 11 15 6 8 1020.7 1020.6 0.0
19/06:30am 13.8 8.4 -8.7 20 7.7 E 13 15 7 8 1020.3 1020.2 0.0
19/06:00am 14.3 8.9 -8.3 20 7.9 E 13 15 7 8 1019.9 1019.8 0.0
19/05:30am 15.5 10.2 -7.3 20 8.2 E 13 15 7 8 1019.7 1019.6 0.0
19/05:00am 17.0 11.3 -7.5 18 9.0 ESE 15 17 8 9 1019.6 1019.5 0.0
19/04:30am 16.7 11.4 -7.7 18 8.9 ESE 13 13 7 7 1019.5 1019.4 0.0
19/04:00am 16.7 12.1 -7.7 18 8.9 ESE 9 13 5 7 1019.5 1019.4 0.0
19/03:30am 16.3 11.2 -8.8 17 8.9 E 11 11 6 6 1019.6 1019.5 0.0
19/03:00am 16.5 11.8 -8.6 17 8.9 E 9 13 5 7 1019.6 1019.5 0.0
19/02:30am 16.1 11.0 -9.7 16 8.9 E 11 13 6 7 1019.6 1019.5 0.0
19/02:00am 16.9 11.8 -9.0 16 9.2 E 11 13 6 7 1019.7 1019.6 0.0
19/01:30am 17.8 12.4 -8.3 16 9.5 E 13 15 7 8 1019.9 1019.8 0.0
19/01:00am 17.9 12.8 -9.1 15 9.7 E 11 13 6 7 1020.0 1019.9 0.0
19/12:30am 18.1 13.0 -8.9 15 9.7 E 11 13 6 7 1020.2 1020.1 0.0
19/12:00am 19.1 13.3 -9.0 14 10.2 E 15 17 8 9 1020.4 1020.3 0.0
 
Date/Time
CDT
Temp
°C
App
Temp
°C
Dew
Point
Rel
Hum
%
Delta-T
°C
Wind Press
QNH
hPa
Press
MSL
hPa
Rain
since 9 am
mm
Dir
 
Spd
km/h
Gust
km/h
Spd
kts
Gust
kts
18/11:30pm 19.2 14.1 -8.9 14 10.3 E 11 13 6 7 1020.5 1020.4 0.0
18/11:00pm 20.0 14.9 -9.2 13 10.7 ESE 11 13 6 7 1020.7 1020.6 0.0
18/10:30pm 20.9 15.9 -8.5 13 11.0 ESE 11 13 6 7 1020.7 1020.6 0.0
18/10:00pm 21.8 16.7 -8.8 12 11.6 ESE 11 13 6 7 1020.6 1020.5 0.0
18/09:30pm 23.4 18.8 -7.6 12 12.1 ESE 9 13 5 7 1020.5 1020.4 0.0
18/09:00pm 23.8 19.2 -8.4 11 12.5 ESE 9 11 5 6 1020.4 1020.3 0.0
18/08:30pm 24.4 19.7 -9.1 10 12.9 ESE 9 13 5 7 1020.1 1020.0 0.0
18/08:00pm 26.2 21.2 -7.8 10 13.7 E 11 13 6 7 1019.6 1019.5 0.0
18/07:30pm 28.2 23.6 -7.6 9 14.7 E 9 11 5 6 1019.2 1019.1 0.0
18/07:00pm 30.4 25.6 -6.0 9 15.7 ENE 11 15 6 8 1018.9 1018.8 0.0
18/06:30pm 31.3 26.2 -5.3 9 16.1 ENE 13 22 7 12 1018.6 1018.5 0.0
18/06:00pm 32.0 26.8 -6.3 8 16.7 ENE 13 20 7 11 1018.3 1018.2 0.0
18/05:30pm 32.2 26.6 -6.2 8 16.8 ENE 15 28 8 15 1018.1 1018.0 0.0
18/05:00pm 32.2 26.2 -6.2 8 16.8 E 17 24 9 13 1018.1 1018.0 0.0
18/04:30pm 32.2 27.0 -6.2 8 16.8 ENE 13 22 7 12 1018.2 1018.1 0.0
18/04:00pm 31.9 25.5 -6.4 8 16.6 E 19 28 10 15 1018.5 1018.4 0.0
18/03:35pm 32.2 24.2 -6.2 8 16.8 ENE 28 35 15 19 1018.5 1018.4 0.0
18/03:30pm 31.9 27.4 -6.4 8 16.6 ENE 9 11 5 6 1018.6 1018.5 0.0
18/03:00pm 31.7 24.8 -6.6 8 16.5 NNE 22 30 12 16 1019.1 1019.0 0.0
18/02:30pm 31.4 25.9 -5.2 9 16.1 NNE 15 26 8 14 1019.6 1019.5 0.0
18/02:00pm 30.7 25.9 -5.8 9 15.9 NNE 11 15 6 8 1020.1 1020.0 0.0
18/01:30pm 31.4 25.2 -5.2 9 16.1 NE 19 24 10 13 1020.8 1020.7 0.0
18/01:00pm 29.8 22.9 -6.4 9 15.5 NNE 22 28 12 15 1021.3 1021.2 0.0
18/12:30pm 30.2 24.4 -4.8 10 15.4 ENE 17 32 9 17 1021.6 1021.5 0.0
18/12:00pm 29.6 22.0 -5.2 10 15.1 NNE 26 30 14 16 1022.1 1022.0 0.0
18/11:30am 29.8 23.1 -3.8 11 15.0 ENE 22 32 12 17 1022.6 1022.5 0.0
18/11:00am 29.0 22.8 -3.2 12 14.4 ENE 20 32 11 17 1023.0 1022.9 0.0
18/10:30am 28.1 20.4 -2.9 13 13.8 NE 28 33 15 18 1023.3 1023.2 0.0
18/10:00am 27.1 19.8 -2.7 14 13.3 ENE 26 35 14 19 1023.4 1023.3 0.0
18/09:30am 25.1 17.8 -2.5 16 12.1 ENE 26 32 14 17 1023.2 1023.1 0.0
18/09:00am 23.7 16.9 -2.0 18 11.2 E 24 32 13 17 1023.2 1023.1 0.0
18/08:30am 21.8 15.6 -2.8 19 10.4 E 20 28 11 15 1023.1 1023.0 0.0
18/08:00am 18.7 12.7 -3.4 22 9.0 E 19 22 10 12 1023.0 1022.9 0.0
18/07:30am 16.0 10.6 -4.5 24 7.9 E 15 20 8 11 1022.8 1022.7 0.0
18/07:00am 14.0 9.0 -4.7 27 7.1 E 13 15 7 8 1022.5 1022.4 0.0
18/06:30am 13.2 7.8 -4.9 28 6.7 ESE 15 17 8 9 1022.1 1022.0 0.0
18/06:00am 13.8 8.4 -4.8 27 7.0 ESE 15 17 8 9 1021.7 1021.6 0.0
18/05:30am 14.8 9.4 -4.5 26 7.3 ESE 15 17 8 9 1021.5 1021.4 0.0
18/05:00am 15.6 10.2 -4.3 25 7.7 ESE 15 17 8 9 1021.4 1021.3 0.0
18/04:30am 16.0 11.0 -4.0 25 7.8 ESE 13 15 7 8 1021.3 1021.2 0.0
18/04:00am 15.6 10.6 -4.3 25 7.7 ESE 13 15 7 8 1021.3 1021.2 0.0
18/03:30am 15.5 10.4 -5.0 24 7.8 ESE 13 15 7 8 1021.1 1021.0 0.0
18/03:00am 15.3 10.6 -5.1 24 7.7 ESE 11 13 6 7 1021.1 1021.0 0.0
18/02:30am 15.0 9.8 -6.5 22 7.9 ESE 13 15 7 8 1021.1 1021.0 0.0
18/02:00am 16.0 10.8 -5.7 22 8.2 ESE 13 15 7 8 1021.1 1021.0 0.0
18/01:30am 15.5 10.1 -8.0 19 8.4 ESE 13 13 7 7 1021.2 1021.1 0.0
18/01:00am 17.3 12.1 -5.8 20 8.8 ESE 13 17 7 9 1021.4 1021.3 0.0
18/12:30am 18.0 12.7 -7.4 17 9.4 ESE 13 17 7 9 1021.4 1021.3 0.0
18/12:00am 18.4 13.2 -6.3 18 9.4 ESE 13 15 7 8 1021.4 1021.3 0.0
 
Date/Time
CDT
Temp
°C
App
Temp
°C
Dew
Point
Rel
Hum
%
Delta-T
°C
Wind Press
QNH
hPa
Press
MSL
hPa
Rain
since 9 am
mm
Dir
 
Spd
km/h
Gust
km/h
Spd
kts
Gust
kts
17/11:30pm 18.3 13.4 -7.1 17 9.5 ESE 11 13 6 7 1021.5 1021.4 0.0
17/11:00pm 19.9 14.7 -6.6 16 10.2 SE 13 15 7 8 1021.4 1021.3 0.0
17/10:30pm 18.6 13.6 -8.5 15 9.9 ESE 11 13 6 7 1021.4 1021.3 0.0
17/10:00pm 20.4 15.8 -8.0 14 10.7 E 9 13 5 7 1021.3 1021.2 0.0
17/09:30pm 24.6 19.1 -5.6 13 12.4 SE 15 19 8 10 1021.1 1021.0 0.0
17/09:00pm 24.7 19.5 -6.6 12 12.7 SE 13 17 7 9 1020.8 1020.7 0.0
17/08:30pm 26.2 21.1 -5.4 12 13.3 SE 13 15 7 8 1020.6 1020.5 0.0
17/08:00pm 26.6 21.4 -6.2 11 13.7 SE 13 17 7 9 1020.2 1020.1 0.0
17/07:30pm 26.6 21.9 -5.1 12 13.4 ESE 11 13 6 7 1019.9 1019.8 0.0
17/07:00pm 28.1 23.3 -6.3 10 14.5 ESE 11 15 6 8 1019.7 1019.6 0.0
17/06:30pm 28.7 23.1 -5.9 10 14.7 ESE 15 20 8 11 1019.4 1019.3 0.0
17/06:00pm 29.2 23.7 -5.5 10 14.9 ESE 15 20 8 11 1019.2 1019.1 0.0
17/05:30pm 29.3 23.7 -6.8 9 15.2 SE 15 28 8 15 1019.2 1019.1 0.0
17/05:00pm 29.7 24.5 -6.5 9 15.4 E 13 26 7 14 1019.1 1019.0 0.0
17/04:30pm 29.6 23.2 -6.6 9 15.3 ESE 19 30 10 16 1019.2 1019.1 0.0
17/04:00pm 30.0 23.5 -6.3 9 15.6 ESE 20 32 11 17 1019.5 1019.4 0.0
17/03:30pm 29.4 22.8 -6.7 9 15.2 ESE 20 32 11 17 1019.7 1019.6 0.0
17/03:00pm 29.4 23.9 -5.4 10 15.0 SE 15 22 8 12 1020.2 1020.1 0.0

Other Formats:

Comma delimited format used in spreadsheet applications
http://www.bom.gov.au/fwo/IDS60801/IDS60801.95481.axf

JavaScript Object Notation format (JSON) in row-major order
http://www.bom.gov.au/fwo/IDS60801/IDS60801.95481.json